Time;durP1;ratioP1;P1;durP2;ratioP2;P2;SDS_P1;SDS_P2;PMS_P1;PMS_P2;Temp;Humidity;BMP_temperature;BMP_pressure;BME280_temperature;BME280_humidity;BME280_pressure;Samples;Min_cycle;Max_cycle;Signal;HPM_P1;HPM_P2
2023/06/27 00:02:19;;;;;;;9.93;7.60;;;19.70;99.90;;;20.12;75.73;94886.50;4989664;28;20461;-64
2023/06/27 00:04:47;;;;;;;19.33;7.97;;;19.70;99.90;;;20.10;75.53;94891.22;4986342;28;20556;-63
2023/06/27 00:07:14;;;;;;;11.43;8.10;;;19.70;99.90;;;20.08;75.78;94887.91;4989158;28;20454;-65
2023/06/27 00:09:43;;;;;;;8.47;7.67;;;19.70;99.90;;;20.06;75.98;94888.13;4989165;28;20474;-56
2023/06/27 00:12:10;;;;;;;7.83;7.03;;;19.70;99.90;;;20.06;76.17;94886.28;4989013;28;20548;-59
2023/06/27 00:14:39;;;;;;;11.57;7.03;;;19.70;99.90;;;20.04;76.18;94882.97;4992354;28;20477;-57
2023/06/27 00:17:12;;;;;;;8.30;6.63;;;19.60;99.90;;;20.02;75.90;94881.53;4998566;28;20693;-62
2023/06/27 00:19:41;;;;;;;15.43;6.80;;;19.60;99.90;;;19.98;75.74;94886.44;4998407;28;21050;-60
2023/06/27 00:22:11;;;;;;;12.83;6.80;;;19.60;99.90;;;19.97;75.38;94881.28;4998198;28;20454;-56
2023/06/27 00:24:39;;;;;;;7.63;6.90;;;19.60;99.90;;;19.95;75.75;94884.16;4993862;28;20588;-56
2023/06/27 00:27:08;;;;;;;7.27;6.67;;;19.50;99.90;;;19.93;76.08;94885.41;4987663;28;20548;-62
2023/06/27 00:29:36;;;;;;;7.70;6.80;;;19.50;99.90;;;19.92;76.64;94894.41;4987875;28;21037;-62
2023/06/27 00:32:03;;;;;;;11.73;7.50;;;19.50;99.90;;;19.92;76.78;94891.75;4984732;28;20494;-62
2023/06/27 00:34:30;;;;;;;11.03;6.80;;;19.50;99.90;;;19.91;76.84;94885.59;4987080;28;20485;-62
2023/06/27 00:36:57;;;;;;;9.20;6.83;;;19.50;99.90;;;19.90;77.01;94878.59;4987874;28;20465;-57
2023/06/27 00:39:25;;;;;;;8.90;8.07;;;19.50;99.90;;;19.90;77.15;94877.78;4987652;28;20940;-61
2023/06/27 00:41:53;;;;;;;7.30;6.63;;;19.50;99.90;;;19.89;76.94;94882.28;4986997;28;20501;-61
2023/06/27 00:44:22;;;;;;;7.83;7.07;;;19.50;99.90;;;19.88;76.54;94886.00;4985822;28;20482;-56
2023/06/27 00:46:50;;;;;;;14.93;6.63;;;19.50;99.90;;;19.86;76.24;94882.66;4987555;28;20915;-56
2023/06/27 00:49:18;;;;;;;8.40;6.70;;;19.50;99.90;;;19.84;76.41;94880.19;4985550;28;20482;-63
2023/06/27 00:51:45;;;;;;;9.80;5.57;;;19.40;99.90;;;19.84;75.85;94879.38;4986967;28;20498;-56
2023/06/27 00:54:13;;;;;;;6.73;6.10;;;19.40;99.90;;;19.81;75.72;94880.59;4987151;28;20470;-61
2023/06/27 00:56:40;;;;;;;9.63;6.40;;;19.40;99.90;;;19.78;75.32;94875.66;4987219;28;21048;-62
2023/06/27 00:59:07;;;;;;;8.77;5.80;;;19.40;99.90;;;19.75;75.18;94880.53;4985770;28;20450;-57
2023/06/27 01:01:36;;;;;;;7.23;5.80;;;19.40;99.90;;;19.71;74.87;94880.94;4987149;28;20837;-62
2023/06/27 01:04:04;;;;;;;7.07;5.70;;;19.30;99.90;;;19.67;75.38;94878.84;4988604;28;20477;-55
2023/06/27 01:06:36;;;;;;;14.70;5.77;;;19.30;99.90;;;19.64;74.65;94876.56;4987578;28;20462;-57
2023/06/27 01:09:06;;;;;;;10.60;6.00;;;19.30;99.90;;;19.59;74.29;94876.34;4986164;28;20459;-55
2023/06/27 01:11:37;;;;;;;8.83;5.60;;;19.20;99.90;;;19.54;74.70;94868.91;4986662;28;20556;-63
2023/06/27 01:14:04;;;;;;;8.47;6.30;;;19.20;99.90;;;19.50;74.49;94873.84;4987301;28;20454;-62
2023/06/27 01:16:32;;;;;;;7.00;5.73;;;19.10;99.90;;;19.48;74.49;94872.38;4986326;28;20982;-61
2023/06/27 01:19:01;;;;;;;7.57;6.20;;;19.10;99.90;;;19.44;74.35;94869.28;4986759;28;20490;-56
2023/06/27 01:21:29;;;;;;;5.47;4.83;;;19.10;99.90;;;19.42;75.23;94870.47;4986685;28;20982;-58
2023/06/27 01:23:59;;;;;;;15.90;6.97;;;19.00;99.90;;;19.40;74.91;94877.88;4985385;28;20958;-62
2023/06/27 01:26:27;;;;;;;6.67;6.10;;;19.00;99.90;;;19.39;75.24;94862.88;4987430;28;20466;-62
2023/06/27 01:28:55;;;;;;;6.20;5.60;;;19.00;99.90;;;19.39;75.30;94870.88;4985914;28;20501;-56
2023/06/27 01:31:27;;;;;;;10.90;6.80;;;19.00;99.90;;;19.36;74.79;94874.75;4986520;28;21330;-55
2023/06/27 01:33:59;;;;;;;6.23;5.10;;;19.00;99.90;;;19.34;74.29;94872.25;4986297;28;20946;-58
2023/06/27 01:36:30;;;;;;;7.93;5.57;;;19.00;99.90;;;19.30;74.23;94879.03;4986968;28;21045;-62
2023/06/27 01:39:03;;;;;;;14.63;6.83;;;18.90;99.90;;;19.30;74.15;94878.19;4986509;28;20458;-56
2023/06/27 01:41:31;;;;;;;8.43;6.63;;;18.90;99.90;;;19.28;74.12;94870.38;4985953;28;20516;-62
2023/06/27 01:43:58;;;;;;;12.13;5.60;;;18.90;99.90;;;19.27;73.47;94868.75;4983116;28;20466;-56
2023/06/27 01:46:26;;;;;;;6.40;4.90;;;18.90;99.90;;;19.26;73.43;94872.41;4986081;28;20463;-61
2023/06/27 01:48:53;;;;;;;12.47;6.80;;;18.90;99.90;;;19.26;73.58;94877.75;4985488;28;20973;-63
2023/06/27 01:51:20;;;;;;;11.30;6.30;;;18.90;99.90;;;19.25;74.27;94869.94;4985289;28;20521;-62
2023/06/27 01:53:48;;;;;;;7.17;6.20;;;18.90;99.90;;;19.23;74.36;94867.47;4986200;28;20455;-62
2023/06/27 01:56:16;;;;;;;15.10;6.67;;;18.90;99.90;;;19.24;75.10;94870.94;4986667;28;20469;-57
2023/06/27 01:58:43;;;;;;;7.40;6.13;;;18.90;99.90;;;19.23;75.48;94870.13;4985323;28;20528;-57
2023/06/27 02:01:11;;;;;;;7.50;6.53;;;18.80;99.90;;;19.23;75.70;94867.47;4986003;28;20497;-63
2023/06/27 02:03:38;;;;;;;15.70;6.63;;;18.90;99.90;;;19.22;75.12;94862.34;4986107;28;20536;-57
2023/06/27 02:06:06;;;;;;;15.93;6.93;;;18.80;99.90;;;19.22;75.19;94873.00;4984854;28;20474;-63
2023/06/27 02:08:33;;;;;;;7.23;6.53;;;18.80;99.90;;;19.21;75.49;94872.19;4985378;28;20528;-62
2023/06/27 02:11:00;;;;;;;11.63;6.30;;;18.80;99.90;;;19.20;75.35;94872.38;4984513;28;20845;-61
2023/06/27 02:13:29;;;;;;;16.30;6.83;;;18.80;99.90;;;19.19;75.26;94873.38;4985506;28;20546;-61
2023/06/27 02:15:56;;;;;;;7.20;6.50;;;18.80;99.90;;;19.16;75.70;94878.09;4986222;28;20787;-56
2023/06/27 02:18:23;;;;;;;14.07;7.23;;;18.80;99.90;;;19.15;75.93;94876.44;4988075;28;20466;-61
2023/06/27 02:20:51;;;;;;;14.83;6.70;;;18.80;99.90;;;19.14;75.17;94876.63;4985433;28;20493;-55
2023/06/27 02:23:18;;;;;;;13.33;6.77;;;18.80;99.90;;;19.11;75.24;94879.69;4986148;28;20529;-62
2023/06/27 02:25:45;;;;;;;7.87;7.10;;;18.70;99.90;;;19.08;75.48;94880.06;4985111;28;20601;-56
2023/06/27 02:28:12;;;;;;;9.40;6.33;;;18.70;99.90;;;19.07;75.57;94878.41;4985199;28;21044;-56
2023/06/27 02:30:42;;;;;;;8.10;6.47;;;18.70;99.90;;;19.05;75.52;94885.78;4984959;28;20478;-57
2023/06/27 02:33:09;;;;;;;6.70;6.00;;;18.70;99.90;;;19.05;76.10;94880.44;4982160;28;20466;-56
2023/06/27 02:35:37;;;;;;;8.00;6.60;;;18.70;99.90;;;19.03;76.10;94882.50;4985341;28;21029;-61
2023/06/27 02:38:04;;;;;;;13.37;7.03;;;18.70;99.90;;;19.02;75.74;94880.84;4985241;28;20467;-62
2023/06/27 02:40:31;;;;;;;9.23;7.00;;;18.70;99.90;;;18.99;75.70;94880.22;4985604;28;20488;-57
2023/06/27 02:42:59;;;;;;;8.33;7.37;;;18.60;99.90;;;18.98;75.68;94880.41;4984169;28;20524;-56
2023/06/27 02:45:26;;;;;;;12.27;6.80;;;18.60;99.90;;;18.96;75.50;94877.94;4985106;28;20486;-56
2023/06/27 02:47:55;;;;;;;10.43;6.40;;;18.60;99.90;;;18.93;75.46;94880.97;4986516;28;20462;-55
2023/06/27 02:50:22;;;;;;;9.23;6.63;;;18.60;99.90;;;18.91;75.60;94884.84;4986687;28;20466;-64
2023/06/27 02:52:49;;;;;;;9.03;6.10;;;18.60;99.90;;;18.89;74.97;94886.88;4987105;28;20489;-62
2023/06/27 02:55:17;;;;;;;20.53;7.00;;;18.50;99.90;;;18.86;75.18;94882.75;4985143;28;20618;-57
2023/06/27 02:57:44;;;;;;;9.60;6.10;;;18.50;99.90;;;18.85;74.91;94886.41;4984114;28;20462;-56
2023/06/27 03:00:12;;;;;;;7.97;6.43;;;18.50;99.90;;;18.83;74.86;94888.41;4982899;28;20491;-63
2023/06/27 03:02:40;;;;;;;9.10;5.80;;;18.50;99.90;;;18.83;75.94;94882.28;4983894;28;20525;-63
2023/06/27 03:05:09;;;;;;;6.73;6.13;;;18.50;99.90;;;18.83;75.92;94885.75;4985033;28;20482;-56
2023/06/27 03:07:36;;;;;;;6.60;6.00;;;18.50;99.90;;;18.82;75.90;94894.75;4984580;28;20525;-62
2023/06/27 03:10:04;;;;;;;7.70;6.90;;;18.50;99.90;;;18.82;75.64;94878.78;4984728;28;20483;-62
2023/06/27 03:12:31;;;;;;;7.43;6.37;;;18.50;99.90;;;18.81;75.96;94885.94;4983225;28;20498;-62
2023/06/27 03:14:58;;;;;;;7.80;6.30;;;18.50;99.90;;;18.83;75.19;94883.09;4983007;28;20482;-62
2023/06/27 03:17:26;;;;;;;12.33;6.97;;;18.50;99.90;;;18.83;76.13;94883.09;4985971;28;20549;-56
2023/06/27 03:19:53;;;;;;;9.63;6.60;;;18.50;99.90;;;18.85;76.03;94885.59;4984791;28;20478;-56
2023/06/27 03:22:22;;;;;;;7.00;6.40;;;18.50;99.90;;;18.85;75.87;94880.28;4985005;28;20468;-57
2023/06/27 03:24:49;;;;;;;14.37;6.10;;;18.50;99.90;;;18.86;75.57;94884.59;4985065;28;20489;-56
2023/06/27 03:27:20;;;;;;;6.60;6.00;;;18.50;99.90;;;18.86;75.31;94888.06;4982713;28;20462;-55
2023/06/27 03:29:47;;;;;;;6.53;6.00;;;18.50;99.90;;;18.85;74.94;94881.09;4982332;28;21006;-57
2023/06/27 03:32:14;;;;;;;9.63;7.07;;;18.50;99.90;;;18.85;75.26;94889.09;4985745;28;21048;-58
2023/06/27 03:34:42;;;;;;;9.07;6.60;;;18.50;99.90;;;18.85;75.00;94880.28;4984472;28;20475;-63
2023/06/27 03:37:10;;;;;;;11.03;7.03;;;18.50;99.90;;;18.84;75.15;94876.75;4984487;28;20501;-55
2023/06/27 03:39:39;;;;;;;10.80;7.77;;;18.50;99.90;;;18.85;74.75;94877.59;4986122;28;21159;-62
2023/06/27 03:42:07;;;;;;;9.83;7.07;;;18.50;99.90;;;18.86;75.13;94885.41;4985549;28;21038;-56
2023/06/27 03:44:35;;;;;;;8.57;6.67;;;18.50;99.90;;;18.88;76.01;94880.69;4983902;28;20548;-62
2023/06/27 03:47:02;;;;;;;7.50;6.77;;;18.50;99.90;;;18.92;76.14;94884.66;4984728;28;20509;-62
2023/06/27 03:49:29;;;;;;;10.83;7.53;;;18.60;99.90;;;18.97;76.20;94897.41;4981611;28;20478;-60
2023/06/27 03:51:56;;;;;;;11.57;7.50;;;18.60;99.90;;;19.03;75.93;94898.47;4983049;28;20498;-64
2023/06/27 03:54:24;;;;;;;11.20;6.83;;;18.60;99.90;;;19.09;75.50;94895.88;4985147;28;20506;-65
2023/06/27 03:56:52;;;;;;;17.60;8.87;;;18.70;99.90;;;19.15;75.17;94896.94;4984825;28;20462;-64
2023/06/27 03:59:20;;;;;;;23.93;13.27;;;18.80;99.90;;;19.20;75.16;94904.38;4984461;28;20501;-57
2023/06/27 04:01:47;;;;;;;8.40;7.60;;;18.80;99.90;;;19.26;74.90;94901.75;4983525;28;20569;-65
2023/06/27 04:04:14;;;;;;;12.17;7.03;;;18.90;99.90;;;19.32;74.94;94908.97;4983982;28;20490;-56
2023/06/27 04:06:42;;;;;;;9.10;7.07;;;18.90;99.90;;;19.39;74.52;94914.34;4982050;28;20459;-56
2023/06/27 04:09:09;;;;;;;11.20;6.20;;;19.00;99.90;;;19.44;74.43;94906.63;4982218;28;20485;-58
2023/06/27 04:11:37;;;;;;;12.53;8.90;;;19.00;99.90;;;19.49;74.07;94920.19;4983259;28;20585;-64
2023/06/27 04:14:05;;;;;;;11.20;8.77;;;19.10;99.90;;;19.52;73.98;94914.47;4983958;28;21034;-64
2023/06/27 04:16:32;;;;;;;9.90;7.60;;;19.10;99.90;;;19.59;73.38;94913.69;4985463;28;20458;-64
2023/06/27 04:19:00;;;;;;;20.07;7.50;;;19.20;99.90;;;19.62;73.40;94913.31;4987763;28;20462;-64
2023/06/27 04:21:28;;;;;;;9.40;6.93;;;19.20;99.90;;;19.64;73.08;94914.78;4987881;28;20462;-64
2023/06/27 04:23:56;;;;;;;7.17;6.10;;;19.20;99.90;;;19.64;73.18;94912.09;4985366;28;20552;-62
2023/06/27 04:26:25;;;;;;;6.93;6.23;;;19.20;99.90;;;19.63;73.18;94915.78;4985018;28;20466;-56
2023/06/27 04:28:52;;;;;;;8.43;6.00;;;19.30;99.90;;;19.62;72.84;94915.97;4983721;28;21023;-63
2023/06/27 04:31:21;;;;;;;11.20;6.20;;;19.30;99.90;;;19.61;73.41;94916.97;4986861;28;20454;-62
2023/06/27 04:33:48;;;;;;;7.27;5.40;;;19.30;99.90;;;19.59;72.95;94919.03;4984720;28;20477;-62
2023/06/27 04:36:20;;;;;;;7.97;5.73;;;19.20;99.90;;;19.58;73.19;94928.88;4987780;28;21106;-56
2023/06/27 04:38:48;;;;;;;6.00;5.10;;;19.20;99.90;;;19.58;73.33;94920.88;4988140;28;20450;-62
2023/06/27 04:41:15;;;;;;;6.07;5.60;;;19.20;99.90;;;19.59;73.41;94924.38;4988132;28;20454;-63
2023/06/27 04:43:42;;;;;;;5.90;5.40;;;19.20;99.90;;;19.59;73.77;94930.53;4987658;28;21017;-55
2023/06/27 04:46:10;;;;;;;8.10;5.50;;;19.20;99.90;;;19.60;73.68;94932.19;4987857;28;20493;-57
2023/06/27 04:48:38;;;;;;;6.30;5.60;;;19.20;99.90;;;19.62;73.94;94923.97;4985835;28;20461;-61
2023/06/27 04:51:06;;;;;;;10.10;6.33;;;19.20;99.90;;;19.64;73.81;94922.78;4988356;28;20475;-62
2023/06/27 04:53:33;;;;;;;7.27;6.03;;;19.30;99.90;;;19.66;73.85;94926.06;4988473;28;20498;-63
2023/06/27 04:56:00;;;;;;;7.77;6.77;;;19.30;99.90;;;19.70;73.53;94931.81;4988470;28;20557;-58
2023/06/27 04:58:27;;;;;;;11.40;6.10;;;19.30;99.90;;;19.73;73.74;94933.28;4988722;28;20761;-57
2023/06/27 05:00:55;;;;;;;6.50;5.90;;;19.30;99.90;;;19.76;73.55;94935.56;4987917;28;20625;-63
2023/06/27 05:03:22;;;;;;;7.63;5.80;;;19.40;99.90;;;19.78;73.82;94929.03;4988124;28;20856;-57
2023/06/27 05:05:51;;;;;;;8.57;6.07;;;19.40;99.90;;;19.83;73.65;94928.44;4988038;28;20489;-56
2023/06/27 05:08:18;;;;;;;7.10;6.40;;;19.40;99.90;;;19.87;74.04;94932.38;4987927;28;20821;-57
2023/06/27 05:10:45;;;;;;;7.90;6.30;;;19.40;99.90;;;19.89;73.84;94925.00;4988331;28;20466;-57
2023/06/27 05:13:13;;;;;;;10.80;6.07;;;19.50;99.90;;;19.95;73.87;94924.19;4980641;28;20498;-63
2023/06/27 05:15:40;;;;;;;10.10;6.40;;;19.50;99.90;;;20.02;73.99;94930.41;4988338;28;20475;-56
2023/06/27 05:18:28;;;;;;;5.90;5.33;;;19.60;99.90;;;20.12;74.10;94929.22;4988038;28;20458;-57
2023/06/27 05:20:56;;;;;;;17.93;6.53;;;19.70;99.90;;;20.22;73.82;94929.72;4985213;28;20544;-63
2023/06/27 05:23:24;;;;;;;13.00;6.70;;;19.80;99.90;;;20.33;73.64;94933.66;4984510;28;20451;-63
2023/06/27 05:25:51;;;;;;;10.07;6.67;;;19.90;99.90;;;20.44;72.92;94933.09;4987521;28;21006;-56
2023/06/27 05:28:18;;;;;;;11.33;6.67;;;20.00;99.90;;;20.56;72.71;94931.47;4987994;28;20463;-58
2023/06/27 05:30:46;;;;;;;11.33;7.80;;;20.10;99.90;;;20.70;72.53;94940.41;4987836;28;20470;-57
2023/06/27 05:33:13;;;;;;;9.90;6.90;;;20.20;99.90;;;20.83;72.28;94941.47;4986334;28;20916;-63
2023/06/27 05:35:40;;;;;;;8.83;7.67;;;20.30;99.90;;;20.99;71.72;94935.75;4987579;28;20493;-57
2023/06/27 05:38:09;;;;;;;13.03;7.53;;;20.50;99.90;;;21.13;71.07;94932.06;4987359;28;21065;-59
2023/06/27 05:40:36;;;;;;;11.70;7.20;;;20.60;99.90;;;21.26;70.25;94933.09;4984092;28;21013;-63
2023/06/27 05:43:03;;;;;;;9.43;7.43;;;20.70;99.90;;;21.35;70.47;94933.72;4987147;28;20461;-58
2023/06/27 05:45:31;;;;;;;12.00;8.70;;;20.80;99.90;;;21.46;70.04;94935.78;4987742;28;20545;-58
2023/06/27 05:47:58;;;;;;;10.67;7.80;;;20.90;99.90;;;21.56;69.53;94943.44;4987056;28;20532;-58
2023/06/27 05:50:25;;;;;;;9.57;6.50;;;21.10;99.90;;;21.63;69.23;94931.69;4987177;28;20489;-56
2023/06/27 05:52:53;;;;;;;10.53;7.23;;;21.10;99.90;;;21.78;68.80;94936.84;4988129;28;20489;-63
2023/06/27 05:55:21;;;;;;;13.43;7.10;;;21.30;99.90;;;21.93;68.78;94930.41;4987159;28;21072;-65
2023/06/27 05:57:48;;;;;;;10.90;6.13;;;21.40;99.90;;;22.06;68.46;94934.91;4986940;28;20971;-63
2023/06/27 06:00:18;;;;;;;10.17;6.70;;;21.50;99.90;;;22.20;68.24;94936.53;4986955;28;20490;-56
2023/06/27 06:02:45;;;;;;;9.20;6.63;;;21.70;99.90;;;22.35;67.97;94938.97;4986299;28;20872;-62
2023/06/27 06:05:14;;;;;;;11.47;6.40;;;21.80;99.90;;;22.48;66.94;94938.94;4987144;28;20474;-57
2023/06/27 06:07:43;;;;;;;13.83;7.23;;;21.90;99.90;;;22.61;66.93;94931.88;4987114;28;20451;-63
2023/06/27 06:10:11;;;;;;;8.43;6.87;;;22.10;99.90;;;22.74;65.93;94943.38;4987335;28;20500;-58
2023/06/27 06:12:39;;;;;;;11.73;6.93;;;22.10;99.90;;;22.86;66.00;94938.13;4986968;28;20706;-62
2023/06/27 06:15:07;;;;;;;7.87;6.20;;;22.30;99.90;;;23.00;65.78;94936.19;4986911;28;20474;-56
2023/06/27 06:17:35;;;;;;;7.23;6.53;;;22.40;99.90;;;23.17;64.80;94938.41;4987086;28;20457;-57
2023/06/27 06:20:02;;;;;;;7.53;6.83;;;22.50;99.90;;;23.30;64.39;94929.44;4987408;28;20536;-62
2023/06/27 06:22:31;;;;;;;9.10;6.53;;;22.70;99.90;;;23.41;64.49;94934.94;4986515;28;20457;-56
2023/06/27 06:24:58;;;;;;;8.60;6.40;;;22.80;99.90;;;23.54;64.11;94942.03;4987032;28;20461;-57
2023/06/27 06:27:26;;;;;;;9.20;6.43;;;22.90;99.90;;;23.67;63.63;94934.91;4983598;28;20533;-63
2023/06/27 06:29:54;;;;;;;6.60;6.00;;;23.00;99.90;;;23.79;63.03;94933.16;4986740;28;21006;-56
2023/06/27 06:32:21;;;;;;;7.10;6.50;;;23.20;99.90;;;23.93;62.81;94934.69;4985491;28;20551;-63
2023/06/27 06:34:49;;;;;;;14.90;7.60;;;23.30;99.90;;;24.04;62.08;94925.09;4986215;28;20477;-57
2023/06/27 06:37:16;;;;;;;16.13;6.67;;;23.40;99.90;;;24.15;61.79;94929.75;4986401;28;20466;-58
2023/06/27 06:39:43;;;;;;;8.90;7.07;;;23.50;99.90;;;24.27;61.50;94923.63;4985956;28;20478;-64
2023/06/27 06:42:12;;;;;;;7.40;6.00;;;23.60;99.90;;;24.38;61.44;94925.53;4986418;28;20458;-63
2023/06/27 06:44:39;;;;;;;8.43;6.60;;;23.70;99.90;;;24.57;61.58;94922.84;4986614;28;20514;-58
2023/06/27 06:47:08;;;;;;;12.67;6.10;;;23.90;99.90;;;24.75;60.61;94913.97;4986729;28;20933;-62
2023/06/27 06:49:35;;;;;;;8.00;6.73;;;24.10;99.90;;;24.96;60.43;94918.84;4986446;28;20485;-57
2023/06/27 06:52:03;;;;;;;10.93;6.47;;;24.30;99.90;;;25.10;59.83;94924.88;4986171;28;20458;-58
2023/06/27 06:54:30;;;;;;;9.63;6.90;;;24.40;99.90;;;25.19;59.80;94931.56;4986566;28;20639;-63
2023/06/27 06:56:57;;;;;;;7.60;6.80;;;24.50;99.90;;;25.34;59.27;94916.88;4986367;28;20547;-56
2023/06/27 06:59:24;;;;;;;6.97;6.27;;;24.70;99.90;;;25.47;59.56;94916.66;4986535;28;20880;-57
2023/06/27 07:01:52;;;;;;;14.27;7.00;;;24.80;99.90;;;25.63;59.38;94917.84;4986460;28;20462;-64
2023/06/27 07:04:20;;;;;;;7.30;6.43;;;24.90;99.90;;;25.80;58.68;94911.78;4986722;28;20470;-57
2023/06/27 07:06:48;;;;;;;11.67;6.67;;;25.10;99.90;;;25.95;58.15;94921.03;4986948;28;20504;-58
2023/06/27 07:09:15;;;;;;;6.83;6.23;;;25.20;99.90;;;26.11;57.39;94906.03;4986360;28;20540;-58
2023/06/27 07:11:42;;;;;;;7.50;6.60;;;25.40;99.90;;;26.27;57.01;94909.06;4986405;28;20457;-59
2023/06/27 07:14:10;;;;;;;7.50;6.80;;;25.60;99.90;;;26.42;57.21;94914.78;4986052;28;20582;-64
2023/06/27 07:16:38;;;;;;;7.10;6.40;;;25.70;99.90;;;26.56;56.82;94906.44;4986444;28;20520;-63
2023/06/27 07:19:06;;;;;;;8.33;6.13;;;25.90;99.90;;;26.70;56.41;94913.22;4986471;28;20461;-59
2023/06/27 07:21:35;;;;;;;8.60;5.50;;;26.00;99.70;;;26.83;55.03;94907.53;4986768;28;20461;-64
2023/06/27 07:24:02;;;;;;;6.83;5.60;;;26.10;98.50;;;26.98;55.06;94911.56;4983388;28;20446;-57
2023/06/27 07:26:29;;;;;;;11.93;5.63;;;26.30;98.20;;;27.11;54.16;94919.41;4987057;28;20571;-59
2023/06/27 07:28:56;;;;;;;7.97;5.10;;;26.40;97.90;;;27.24;53.96;94917.44;4986258;28;20454;-58
2023/06/27 07:31:24;;;;;;;5.60;5.10;;;26.50;97.40;;;27.34;53.27;94917.63;4986367;28;20979;-57
2023/06/27 07:33:51;;;;;;;9.70;6.30;;;26.70;96.90;;;27.47;53.45;94916.53;4984424;28;20504;-59
2023/06/27 07:36:19;;;;;;;10.50;7.70;;;26.80;96.90;;;27.62;53.59;94915.94;4986429;28;20536;-62
2023/06/27 07:38:47;;;;;;;18.53;6.50;;;26.90;96.80;;;27.71;53.03;94917.16;4986136;28;20509;-63
2023/06/27 07:41:15;;;;;;;10.20;6.93;;;27.00;96.70;;;27.79;53.11;94916.75;4985882;28;20500;-57
2023/06/27 07:43:42;;;;;;;6.40;5.80;;;27.10;96.50;;;27.88;52.59;94917.16;4986355;28;20495;-63
2023/06/27 07:46:09;;;;;;;6.90;6.30;;;27.10;95.60;;;28.01;52.54;94914.16;4986607;28;20478;-57
2023/06/27 07:48:36;;;;;;;7.13;6.50;;;27.30;95.80;;;28.09;52.03;94912.91;4984188;28;20446;-62
2023/06/27 07:51:04;;;;;;;12.50;6.50;;;27.40;95.60;;;28.19;51.72;94918.44;4988167;28;20227;-59
2023/06/27 07:53:31;;;;;;;6.97;6.37;;;27.50;95.60;;;28.32;50.85;94906.47;4990217;28;20231;-63
2023/06/27 07:56:00;;;;;;;5.90;5.50;;;27.60;94.30;;;28.50;49.25;94907.22;4989824;28;20286;-57
2023/06/27 07:58:27;;;;;;;6.13;5.60;;;27.70;93.10;;;28.68;50.33;94906.13;4989745;28;20203;-59
2023/06/27 08:00:55;;;;;;;7.73;5.77;;;27.90;93.80;;;28.86;49.76;94915.78;4989616;28;20247;-63
2023/06/27 08:03:22;;;;;;;7.10;4.93;;;28.10;93.20;;;29.01;49.00;94909.72;4987878;28;20322;-58
2023/06/27 08:05:49;;;;;;;11.50;6.57;;;28.20;92.40;;;29.16;49.05;94915.28;4990116;28;20218;-58
2023/06/27 08:08:17;;;;;;;14.70;8.40;;;28.40;92.10;;;29.23;49.30;94907.78;4990150;28;20206;-63
2023/06/27 08:10:44;;;;;;;19.63;6.63;;;28.50;92.10;;;29.28;48.73;94907.03;4989545;28;20234;-58
2023/06/27 08:13:13;;;;;;;5.00;4.60;;;28.60;91.90;;;29.36;48.32;94903.03;4987038;28;20242;-63
2023/06/27 08:15:40;;;;;;;5.13;4.60;;;28.60;91.00;;;29.48;48.09;94909.09;4989661;28;20223;-64
2023/06/27 08:18:07;;;;;;;12.67;4.93;;;28.70;90.20;;;29.62;46.66;94904.91;4989387;28;20210;-62
2023/06/27 08:20:34;;;;;;;5.50;4.13;;;28.90;88.80;;;29.76;46.87;94915.28;4988913;28;20227;-58
2023/06/27 08:23:02;;;;;;;6.20;4.70;;;29.00;87.40;;;29.91;46.80;94906.50;4989630;28;20238;-59
2023/06/27 08:25:29;;;;;;;7.70;5.17;;;29.20;86.80;;;30.06;44.89;94906.59;4989303;28;20270;-62
2023/06/27 08:27:56;;;;;;;12.48;7.47;;;29.40;84.20;;;30.21;44.96;94903.97;4989441;28;20265;-63
2023/06/27 08:30:26;;;;;;;15.07;6.47;;;29.50;84.10;;;30.30;44.60;94892.63;4989356;28;20227;-62
2023/06/27 08:32:54;;;;;;;5.68;5.18;;;29.60;84.10;;;30.29;45.04;94897.22;4988361;28;20315;-63
2023/06/27 08:35:22;;;;;;;14.82;8.50;;;29.60;83.20;;;30.24;45.73;94899.09;4989528;28;20610;-58
2023/06/27 08:37:49;;;;;;;12.00;7.60;;;29.50;82.80;;;30.23;45.37;94894.75;4988769;28;20959;-59
2023/06/27 08:40:20;;;;;;;6.68;5.25;;;29.50;82.70;;;30.24;45.05;94893.66;4988392;28;20226;-58
2023/06/27 08:42:47;;;;;;;4.85;4.00;;;29.50;82.20;;;30.27;44.89;94893.97;4989102;28;20293;-62
2023/06/27 08:45:14;;;;;;;5.47;4.97;;;29.50;80.70;;;30.35;44.23;94901.59;4988721;28;20226;-58
2023/06/27 08:47:44;;;;;;;7.93;4.93;;;29.60;80.10;;;30.48;43.90;94892.19;4988933;28;20272;-57
2023/06/27 08:50:13;;;;;;;4.50;4.20;;;29.70;79.00;;;30.60;43.41;94891.13;4988454;28;20315;-57
2023/06/27 08:52:44;;;;;;;5.97;4.80;;;29.80;77.80;;;30.64;42.09;94889.53;4988821;28;20647;-57
2023/06/27 08:55:18;;;;;;;5.85;5.05;;;29.90;75.90;;;30.70;42.74;94889.28;4988346;28;20310;-62
2023/06/27 08:57:45;;;;;;;9.95;4.75;;;30.00;75.50;;;30.86;43.44;94892.03;4985506;28;20273;-59
2023/06/27 09:00:14;;;;;;;4.90;4.40;;;30.10;76.10;;;31.01;42.63;94889.41;4988641;28;20249;-62
2023/06/27 09:02:44;;;;;;;7.07;4.10;;;30.30;74.60;;;31.18;42.21;94885.63;4987600;28;20322;-64
2023/06/27 09:05:11;;;;;;;9.60;5.18;;;30.50;73.50;;;31.31;41.70;94887.00;4987424;28;20291;-64
2023/06/27 09:07:39;;;;;;;8.00;4.60;;;30.60;73.90;;;31.34;41.70;94887.28;4989179;28;20219;-63
2023/06/27 09:10:08;;;;;;;4.68;3.55;;;30.60;73.00;;;31.41;40.91;94890.53;4987935;28;20589;-63
2023/06/27 09:12:35;;;;;;;8.02;4.10;;;30.70;71.30;;;31.52;41.02;94887.84;4985557;28;20694;-58
2023/06/27 09:15:03;;;;;;;9.20;4.10;;;30.80;69.90;;;31.59;41.23;94883.00;4988474;28;20624;-63
2023/06/27 09:17:30;;;;;;;7.05;6.05;;;30.90;72.00;;;31.63;41.41;94881.34;4988324;28;20691;-63
2023/06/27 09:19:59;;;;;;;5.53;4.90;;;30.90;70.90;;;31.63;40.97;94882.13;4988062;28;20227;-59
2023/06/27 09:22:26;;;;;;;5.07;4.57;;;30.90;70.00;;;31.63;41.19;94884.06;4988436;28;20211;-63
2023/06/27 09:25:10;;;;;;;5.22;4.72;;;30.90;70.00;;;31.62;39.83;94888.69;4988462;28;20237;-63
2023/06/27 09:27:38;;;;;;;8.15;5.18;;;30.90;68.40;;;31.63;40.12;94881.34;4986749;28;20258;-59
2023/06/27 09:30:07;;;;;;;5.80;4.45;;;30.90;68.10;;;31.67;40.21;94885.16;4988171;28;20609;-64
2023/06/27 09:32:35;;;;;;;5.75;4.93;;;30.90;68.40;;;31.67;39.52;94884.31;4983650;28;20353;-59
2023/06/27 09:35:04;;;;;;;8.00;4.07;;;30.90;66.10;;;31.62;40.27;94882.41;4987548;28;20246;-59
2023/06/27 09:37:32;;;;;;;5.63;4.00;;;30.90;67.30;;;31.63;40.53;94879.41;4986662;28;20254;-65
2023/06/27 09:39:59;;;;;;;5.10;4.57;;;30.90;67.50;;;31.70;40.14;94881.88;4987608;28;20234;-63
2023/06/27 09:42:27;;;;;;;5.60;4.30;;;31.00;67.00;;;31.78;40.04;94878.59;4987775;28;20214;-63
2023/06/27 09:44:54;;;;;;;9.50;5.35;;;31.10;66.40;;;31.86;40.51;94882.69;4990108;28;20227;-59
2023/06/27 09:47:25;;;;;;;7.93;4.47;;;31.10;67.10;;;31.94;38.57;94886.75;4987779;28;20248;-58
2023/06/27 09:49:52;;;;;;;4.95;4.45;;;31.20;64.70;;;31.95;38.92;94882.94;4988789;28;20215;-60
2023/06/27 09:52:21;;;;;;;4.95;4.50;;;31.30;64.10;;;31.95;37.94;94886.47;4987559;28;20688;-60
2023/06/27 09:54:49;;;;;;;3.95;3.58;;;31.30;61.60;;;31.98;37.37;94876.97;4988845;28;20288;-59
2023/06/27 09:57:21;;;;;;;5.78;4.53;;;31.30;61.10;;;32.08;36.15;94879.63;4989198;28;20234;-65
2023/06/27 09:59:48;;;;;;;4.38;3.97;;;31.40;58.80;;;32.15;36.86;94874.75;4986224;28;20223;-58
2023/06/27 10:02:16;;;;;;;6.95;4.80;;;31.40;59.90;;;32.26;37.40;94882.91;4986958;28;20276;-62
2023/06/27 10:04:43;;;;;;;4.03;3.72;;;31.50;60.50;;;32.35;36.18;94875.81;4989193;28;20265;-59
2023/06/27 10:07:13;;;;;;;5.60;4.85;;;31.70;59.50;;;32.35;36.88;94873.88;4987087;28;20289;-58
2023/06/27 10:09:43;;;;;;;6.30;4.90;;;31.70;60.00;;;32.26;37.63;94881.00;4984039;28;20227;-57
2023/06/27 10:12:14;;;;;;;17.33;3.83;;;31.60;60.70;;;32.34;38.20;94883.13;4986148;28;20278;-63
2023/06/27 10:14:41;;;;;;;6.85;3.70;;;31.70;62.00;;;32.43;35.76;94869.78;4986434;28;20316;-58
2023/06/27 10:17:09;;;;;;;4.82;4.40;;;31.70;57.90;;;32.48;36.71;94872.47;4987529;28;20746;-59
2023/06/27 10:19:36;;;;;;;4.75;4.13;;;31.80;59.50;;;32.56;36.63;94867.56;4983870;28;20218;-64
2023/06/27 10:22:04;;;;;;;4.75;3.97;;;31.80;59.30;;;32.57;36.98;94875.44;4985448;28;20206;-59